createdAt,value
2023-01-02T00:02:08.373Z,48.55
2023-01-02T00:04:35.264Z,47.83
2023-01-02T00:07:02.260Z,47.63
2023-01-02T00:09:29.061Z,45.55
2023-01-02T00:11:55.878Z,43.40
2023-01-02T00:14:23.226Z,43.63
2023-01-02T00:16:50.074Z,44.95
2023-01-02T00:19:17.201Z,46.03
2023-01-02T00:21:44.128Z,48.75
2023-01-02T00:24:11.070Z,45.10
2023-01-02T00:26:38.079Z,56.05
2023-01-02T00:29:07.685Z,54.17
2023-01-02T00:31:34.559Z,47.17
2023-01-02T00:34:01.403Z,48.65
2023-01-02T00:36:28.405Z,46.58
2023-01-02T00:38:58.908Z,51.97
2023-01-02T00:41:25.916Z,54.20
2023-01-02T00:43:52.965Z,54.45
2023-01-02T00:46:19.894Z,52.40
2023-01-02T00:48:46.980Z,51.80
2023-01-02T00:51:13.923Z,49.53
2023-01-02T00:53:41.012Z,50.50
2023-01-02T00:56:08.240Z,50.50
2023-01-02T00:58:35.310Z,47.38
2023-01-02T01:01:02.292Z,49.38
2023-01-02T01:03:29.542Z,50.35
2023-01-02T01:05:56.506Z,50.63
2023-01-02T01:08:23.318Z,45.13
2023-01-02T01:10:51.970Z,42.65
2023-01-02T01:13:18.960Z,40.22
2023-01-02T01:15:45.846Z,42.65
2023-01-02T01:18:12.694Z,43.25
2023-01-02T01:20:40.213Z,40.83
2023-01-02T01:23:07.075Z,37.53
2023-01-02T01:25:34.014Z,38.88
2023-01-02T01:28:00.860Z,38.33
2023-01-02T01:30:28.282Z,38.80
2023-01-02T01:32:55.181Z,37.25
2023-01-02T01:35:22.422Z,35.47
2023-01-02T01:37:49.533Z,36.63
2023-01-02T01:40:16.434Z,35.38
2023-01-02T01:42:43.337Z,34.60
2023-01-02T01:45:15.318Z,35.10
2023-01-02T01:47:53.902Z,35.03
2023-01-02T01:50:32.565Z,34.30
2023-01-02T01:53:29.165Z,34.97
2023-01-02T01:56:04.467Z,34.30
2023-01-02T01:58:39.642Z,33.40
2023-01-02T02:03:44.790Z,34.63
2023-01-02T02:06:12.029Z,35.10
2023-01-02T02:08:49.926Z,37.28
2023-01-02T02:11:18.065Z,33.35
2023-01-02T02:13:44.917Z,32.92
2023-01-02T02:16:34.108Z,34.72
2023-01-02T02:19:03.809Z,33.30
2023-01-02T02:21:45.805Z,32.72
2023-01-02T02:24:21.869Z,31.33
2023-01-02T02:27:10.103Z,32.03
2023-01-02T02:30:04.381Z,33.40
2023-01-02T02:33:02.183Z,31.73
2023-01-02T02:35:48.858Z,32.40
2023-01-02T02:38:45.408Z,32.80
2023-01-02T02:41:32.535Z,34.00
2023-01-02T02:46:34.965Z,35.78
2023-01-02T02:49:01.685Z,36.78
2023-01-02T02:51:52.777Z,36.83
2023-01-02T02:54:48.908Z,36.00
2023-01-02T02:57:16.749Z,38.17
2023-01-02T02:59:43.706Z,40.55
2023-01-02T03:02:16.513Z,39.03
2023-01-02T03:04:55.026Z,40.60
2023-01-02T03:07:48.209Z,41.13
2023-01-02T03:10:42.475Z,40.42
2023-01-02T03:13:24.607Z,39.15
2023-01-02T03:16:13.387Z,40.15
2023-01-02T03:18:59.626Z,39.13
2023-01-02T03:21:41.698Z,39.53
2023-01-02T03:24:12.834Z,39.00
2023-01-02T03:26:45.396Z,40.92
2023-01-02T03:29:30.915Z,37.33
2023-01-02T03:32:01.745Z,36.25
2023-01-02T03:34:32.842Z,36.83
2023-01-02T03:37:06.899Z,36.50
2023-01-02T03:39:40.043Z,37.78
2023-01-02T03:42:14.900Z,38.22
2023-01-02T03:44:49.863Z,35.60
2023-01-02T03:47:54.224Z,37.38
2023-01-02T03:50:49.549Z,37.75
2023-01-02T03:53:16.791Z,37.67
2023-01-02T03:55:58.047Z,36.85
2023-01-02T03:58:38.580Z,37.72
2023-01-02T04:01:09.658Z,38.92
2023-01-02T04:03:46.825Z,37.28
2023-01-02T04:06:20.837Z,38.58
2023-01-02T04:09:07.981Z,35.88
2023-01-02T04:14:12.434Z,35.05
2023-01-02T04:19:19.062Z,37.05
2023-01-02T04:21:48.806Z,34.80
2023-01-02T04:24:41.910Z,36.55
2023-01-02T04:27:14.551Z,37.58
2023-01-02T04:29:41.615Z,39.50
2023-01-02T04:32:23.349Z,41.03
2023-01-02T04:34:52.560Z,42.70
2023-01-02T04:37:39.112Z,41.83
2023-01-02T04:40:15.511Z,42.90
2023-01-02T04:42:42.974Z,41.63
2023-01-02T04:45:10.327Z,40.90
2023-01-02T04:47:37.165Z,40.40
2023-01-02T04:50:06.682Z,39.33
2023-01-02T04:52:36.981Z,41.03
2023-01-02T04:55:05.578Z,41.20
2023-01-02T04:57:32.440Z,38.63
2023-01-02T04:59:59.384Z,40.88
2023-01-02T05:02:26.617Z,40.67
2023-01-02T05:04:53.659Z,37.90
2023-01-02T05:07:20.596Z,38.00
2023-01-02T05:09:47.457Z,37.67
2023-01-02T05:12:14.370Z,37.70
2023-01-02T05:14:41.283Z,37.45
2023-01-02T05:17:08.199Z,36.83
2023-01-02T05:19:35.265Z,34.53
2023-01-02T05:22:20.679Z,35.20
2023-01-02T05:24:47.760Z,36.47
2023-01-02T05:27:14.773Z,33.65
2023-01-02T05:29:41.598Z,34.33
2023-01-02T05:32:08.508Z,36.75
2023-01-02T05:34:35.484Z,34.60
2023-01-02T05:37:02.304Z,34.80
2023-01-02T05:39:29.126Z,35.55
2023-01-02T05:41:55.976Z,35.25
2023-01-02T05:44:22.997Z,35.00
2023-01-02T05:46:50.145Z,32.03
2023-01-02T05:49:17.026Z,32.85
2023-01-02T05:51:43.860Z,32.80
2023-01-02T05:54:11.296Z,31.60
2023-01-02T05:56:38.148Z,31.45
2023-01-02T05:59:08.504Z,29.67
2023-01-02T06:01:35.586Z,32.08
2023-01-02T06:04:02.712Z,30.55
2023-01-02T06:06:36.058Z,32.33
2023-01-02T06:09:04.756Z,31.42
2023-01-02T06:11:33.725Z,31.30
2023-01-02T06:14:00.811Z,30.92
2023-01-02T06:16:29.443Z,32.83
2023-01-02T06:18:56.667Z,32.33
2023-01-02T06:21:23.984Z,32.10
2023-01-02T06:23:56.902Z,31.50
2023-01-02T06:26:28.771Z,31.98
2023-01-02T06:28:58.362Z,35.88
2023-01-02T06:31:27.631Z,34.40
2023-01-02T06:33:59.383Z,34.90
2023-01-02T06:36:29.627Z,38.95
2023-01-02T06:38:57.371Z,32.58
2023-01-02T06:41:24.346Z,31.85
2023-01-02T06:43:51.960Z,30.50
2023-01-02T06:46:21.143Z,31.33
2023-01-02T06:48:48.273Z,29.77
2023-01-02T06:51:18.164Z,28.88
2023-01-02T06:53:45.428Z,29.92
2023-01-02T06:56:13.769Z,28.80
2023-01-02T06:58:40.696Z,27.85
2023-01-02T07:01:10.536Z,26.60
2023-01-02T07:03:37.516Z,26.27
2023-01-02T07:06:06.724Z,25.67
2023-01-02T07:08:33.953Z,25.80
2023-01-02T07:11:22.255Z,24.17
2023-01-02T07:13:51.533Z,25.15
2023-01-02T07:16:20.482Z,25.10
2023-01-02T07:18:47.968Z,26.58
2023-01-02T07:21:16.673Z,27.02
2023-01-02T07:23:43.556Z,25.35
2023-01-02T07:26:10.938Z,26.23
2023-01-02T07:28:38.406Z,24.55
2023-01-02T07:31:08.158Z,24.35
2023-01-02T07:33:35.398Z,25.20
2023-01-02T07:36:05.084Z,23.58
2023-01-02T07:38:32.395Z,25.42
2023-01-02T07:40:59.623Z,23.30
2023-01-02T07:43:26.999Z,23.17
2023-01-02T07:45:53.987Z,23.10
2023-01-02T07:48:20.899Z,24.00
2023-01-02T07:50:47.829Z,22.48
2023-01-02T07:53:14.660Z,23.92
2023-01-02T07:55:41.560Z,23.20
2023-01-02T07:58:08.382Z,23.33
2023-01-02T08:00:35.216Z,22.98
2023-01-02T08:03:02.442Z,21.92
2023-01-02T08:05:29.416Z,21.73
2023-01-02T08:07:56.202Z,23.10
2023-01-02T08:10:23.284Z,20.85
2023-01-02T08:12:50.163Z,19.98
2023-01-02T08:15:17.059Z,20.65
2023-01-02T08:17:44.006Z,20.50
2023-01-02T08:20:12.056Z,21.25
2023-01-02T08:22:38.983Z,21.83
2023-01-02T08:25:06.794Z,22.92
2023-01-02T08:27:33.785Z,25.85
2023-01-02T08:30:00.720Z,26.00
2023-01-02T08:32:27.751Z,24.65
2023-01-02T08:34:54.661Z,24.65
2023-01-02T08:37:21.476Z,25.27
2023-01-02T08:39:48.660Z,23.45
2023-01-02T08:42:15.693Z,23.30
2023-01-02T08:44:43.830Z,23.20
2023-01-02T08:47:10.799Z,21.88
2023-01-02T08:49:37.848Z,23.88
2023-01-02T08:52:05.427Z,25.02
2023-01-02T08:54:32.623Z,24.90
2023-01-02T08:56:59.642Z,24.73
2023-01-02T08:59:27.130Z,25.00
2023-01-02T09:01:54.903Z,25.33
2023-01-02T09:04:21.921Z,27.63
2023-01-02T09:06:49.064Z,26.50
2023-01-02T09:09:17.375Z,27.00
2023-01-02T09:11:51.272Z,27.40
2023-01-02T09:14:20.754Z,25.40
2023-01-02T09:16:48.107Z,24.52
2023-01-02T09:19:14.931Z,25.45
2023-01-02T09:21:41.908Z,24.67
2023-01-02T09:24:09.385Z,23.65
2023-01-02T09:26:38.182Z,23.25
2023-01-02T09:29:05.365Z,23.20
2023-01-02T09:31:32.359Z,23.67
2023-01-02T09:33:59.444Z,23.58
2023-01-02T09:36:26.731Z,23.80
2023-01-02T09:38:55.432Z,23.45
2023-01-02T09:41:22.150Z,22.80
2023-01-02T09:43:54.182Z,22.27
2023-01-02T09:46:28.223Z,22.55
2023-01-02T09:48:55.151Z,24.02
2023-01-02T09:51:22.472Z,25.40
2023-01-02T09:53:49.380Z,27.33
2023-01-02T09:56:35.029Z,25.48
2023-01-02T09:59:20.287Z,25.60
2023-01-02T10:02:03.919Z,25.23
2023-01-02T10:04:43.494Z,25.60
2023-01-02T10:07:35.240Z,22.95
2023-01-02T10:10:26.398Z,23.15
2023-01-02T10:13:07.731Z,24.00
2023-01-02T10:15:36.471Z,23.52
2023-01-02T10:18:23.384Z,23.90
2023-01-02T10:20:58.101Z,24.23
2023-01-02T10:23:35.496Z,24.38
2023-01-02T10:26:18.394Z,24.88
2023-01-02T10:29:03.661Z,24.92
2023-01-02T10:31:51.771Z,26.75
2023-01-02T10:34:21.304Z,27.33
2023-01-02T10:36:49.518Z,27.52
2023-01-02T10:39:18.062Z,28.92
2023-01-02T10:41:50.797Z,25.90
2023-01-02T10:44:25.050Z,26.00
2023-01-02T10:46:53.008Z,27.67
2023-01-02T10:49:21.531Z,25.83
2023-01-02T10:52:05.270Z,26.00
2023-01-02T10:54:53.444Z,25.48
2023-01-02T10:57:44.554Z,25.27
2023-01-02T11:00:25.687Z,26.17
2023-01-02T11:03:01.464Z,26.40
2023-01-02T11:05:31.077Z,26.48
2023-01-02T11:07:58.895Z,24.58
2023-01-02T11:10:31.295Z,27.05
2023-01-02T11:13:03.376Z,24.00
2023-01-02T11:15:34.949Z,24.27
2023-01-02T11:18:11.122Z,21.98
2023-01-02T11:20:38.157Z,22.48
2023-01-02T11:23:06.361Z,23.67
2023-01-02T11:25:42.301Z,22.55
2023-01-02T11:28:32.726Z,22.83
2023-01-02T11:31:06.313Z,23.55
2023-01-02T11:33:36.436Z,20.95
2023-01-02T11:36:16.286Z,18.98
2023-01-02T11:38:54.511Z,18.50
2023-01-02T11:42:07.689Z,18.33
2023-01-02T11:44:43.923Z,17.98
2023-01-02T11:47:13.428Z,22.00
2023-01-02T11:49:45.924Z,20.10
2023-01-02T11:52:16.888Z,20.42
2023-01-02T11:54:52.888Z,20.00
2023-01-02T11:57:25.400Z,22.70
2023-01-02T11:59:54.376Z,23.40
2023-01-02T12:02:27.280Z,21.85
2023-01-02T12:04:55.133Z,22.73
2023-01-02T12:07:40.271Z,21.73
2023-01-02T12:10:20.875Z,22.52
2023-01-02T12:12:56.696Z,22.60
2023-01-02T12:15:44.692Z,21.95
2023-01-02T12:18:20.729Z,21.55
2023-01-02T12:20:57.355Z,20.17
2023-01-02T12:26:12.773Z,21.50
2023-01-02T12:28:45.593Z,21.85
2023-01-02T12:31:19.654Z,21.35
2023-01-02T12:34:17.066Z,21.88
2023-01-02T12:37:19.437Z,22.90
2023-01-02T12:40:05.016Z,24.77
2023-01-02T12:42:49.163Z,21.60
2023-01-02T12:45:26.166Z,22.45
2023-01-02T12:48:11.424Z,22.10
2023-01-02T12:51:08.843Z,21.95
2023-01-02T12:54:20.731Z,21.58
2023-01-02T12:56:54.065Z,20.17
2023-01-02T12:59:42.448Z,20.95
2023-01-02T13:02:27.933Z,21.15
2023-01-02T13:05:09.185Z,20.75
2023-01-02T13:07:50.676Z,21.02
2023-01-02T13:10:22.568Z,21.85
2023-01-02T13:12:49.805Z,22.98
2023-01-02T13:15:28.237Z,23.20
2023-01-02T13:17:57.957Z,21.83
2023-01-02T13:20:43.284Z,21.85
2023-01-02T13:23:28.535Z,22.08
2023-01-02T13:26:03.105Z,25.02
2023-01-02T13:28:30.093Z,28.95
2023-01-02T13:31:44.163Z,24.83
2023-01-02T13:33:54.816Z,23.27
2023-01-02T13:36:29.232Z,23.92
2023-01-02T13:39:03.122Z,23.27
2023-01-02T13:41:58.091Z,24.02
2023-01-02T13:44:36.405Z,29.73
2023-01-02T13:50:25.427Z,23.00
2023-01-02T13:53:30.116Z,24.40
2023-01-02T13:55:59.643Z,22.95
2023-01-02T13:58:45.526Z,23.98
2023-01-02T14:01:51.413Z,22.30
2023-01-02T14:04:19.930Z,21.50
2023-01-02T14:06:53.902Z,22.05
2023-01-02T14:09:23.321Z,22.38
2023-01-02T14:11:56.812Z,21.75
2023-01-02T14:14:42.081Z,20.67
2023-01-02T14:17:46.206Z,21.08
2023-01-02T14:20:18.849Z,20.73
2023-01-02T14:22:52.974Z,21.42
2023-01-02T14:25:21.078Z,21.20
2023-01-02T14:27:55.191Z,22.85
2023-01-02T14:30:24.685Z,22.50
2023-01-02T14:32:53.355Z,22.85
2023-01-02T14:35:20.230Z,23.58
2023-01-02T14:38:06.359Z,23.48
2023-01-02T14:40:40.058Z,55.38
2023-01-02T14:43:33.986Z,26.10
2023-01-02T14:46:21.518Z,26.38
2023-01-02T14:49:24.955Z,26.13
2023-01-02T14:52:01.306Z,28.45
2023-01-02T14:54:40.161Z,29.98
2023-01-02T14:57:30.041Z,30.80
2023-01-02T14:59:59.084Z,30.05
2023-01-02T15:02:36.934Z,28.17
2023-01-02T15:05:18.314Z,29.17
2023-01-02T15:07:51.856Z,28.75
2023-01-02T15:10:21.076Z,26.17
2023-01-02T15:13:07.727Z,27.05
2023-01-02T15:15:47.904Z,28.50
2023-01-02T15:18:33.651Z,27.13
2023-01-02T15:21:08.879Z,26.13
2023-01-02T15:23:37.557Z,25.90
2023-01-02T15:26:32.017Z,26.52
2023-01-02T15:29:07.085Z,26.98
2023-01-02T15:31:34.564Z,31.35
2023-01-02T15:34:01.768Z,28.63
2023-01-02T15:36:36.668Z,29.58
2023-01-02T15:39:42.759Z,29.38
2023-01-02T15:42:34.131Z,29.60
2023-01-02T15:45:10.058Z,30.38
2023-01-02T15:47:44.478Z,29.42
2023-01-02T15:50:16.244Z,31.23
2023-01-02T15:52:44.447Z,30.27
2023-01-02T15:55:19.159Z,31.35
2023-01-02T15:57:52.140Z,32.35
2023-01-02T16:00:42.020Z,32.90
2023-01-02T16:03:11.667Z,34.03
2023-01-02T16:06:03.079Z,34.95
2023-01-02T16:08:35.841Z,36.33
2023-01-02T16:11:05.319Z,35.70
2023-01-02T16:14:00.161Z,37.65
2023-01-02T16:16:57.172Z,37.22
2023-01-02T16:19:48.100Z,45.55
2023-01-02T16:22:20.396Z,47.28
2023-01-02T16:25:10.667Z,46.95
2023-01-02T16:28:35.270Z,51.67
2023-01-02T16:31:14.677Z,57.10
2023-01-02T16:33:42.527Z,60.28
2023-01-02T16:36:15.340Z,64.75
2023-01-02T16:38:56.411Z,63.70
2023-01-02T16:41:37.212Z,74.25
2023-01-02T16:44:13.241Z,61.55
2023-01-02T16:46:51.120Z,51.72
2023-01-02T16:49:21.583Z,48.50
2023-01-02T16:51:53.623Z,49.45
2023-01-02T16:54:20.907Z,50.35
2023-01-02T16:56:50.127Z,48.85
2023-01-02T16:59:16.957Z,49.45
2023-01-02T17:01:43.983Z,51.13
2023-01-02T17:04:14.088Z,51.75
2023-01-02T17:06:40.988Z,50.75
2023-01-02T17:09:07.817Z,48.45
2023-01-02T17:11:34.727Z,48.53
2023-01-02T17:14:02.018Z,48.75
2023-01-02T17:16:29.041Z,50.95
2023-01-02T17:18:55.936Z,53.58
2023-01-02T17:21:26.254Z,53.05
2023-01-02T17:23:57.717Z,54.20
2023-01-02T17:26:24.487Z,53.92
2023-01-02T17:28:51.286Z,55.28
2023-01-02T17:31:23.993Z,55.83
2023-01-02T17:33:52.431Z,53.42
2023-01-02T17:36:19.201Z,53.88
2023-01-02T17:38:46.118Z,51.35
2023-01-02T17:41:12.960Z,50.60
2023-01-02T17:43:39.768Z,48.67
2023-01-02T17:47:00.766Z,49.30
2023-01-02T17:51:40.351Z,48.35
2023-01-02T17:54:07.171Z,47.17
2023-01-02T17:56:34.048Z,49.08
2023-01-02T17:59:00.998Z,44.83
2023-01-02T18:01:27.919Z,42.75
2023-01-02T18:03:54.851Z,42.92
2023-01-02T18:06:21.837Z,45.42
2023-01-02T18:08:48.675Z,51.78
2023-01-02T18:11:17.851Z,46.35
2023-01-02T18:13:53.273Z,47.78
2023-01-02T18:16:24.078Z,47.50
2023-01-02T18:18:51.466Z,48.63
2023-01-02T18:21:22.161Z,49.15
2023-01-02T18:23:52.396Z,50.35
2023-01-02T18:26:19.920Z,55.78
2023-01-02T18:29:00.370Z,59.42
2023-01-02T18:31:41.916Z,60.47
2023-01-02T18:34:47.729Z,68.13
2023-01-02T18:37:21.188Z,83.70
2023-01-02T18:39:49.064Z,89.05
2023-01-02T18:42:23.078Z,100.95
2023-01-02T18:44:52.088Z,102.78
2023-01-02T18:47:37.087Z,105.20
2023-01-02T18:50:16.940Z,104.50
2023-01-02T18:52:48.678Z,103.72
2023-01-02T18:55:20.167Z,99.43
2023-01-02T18:57:53.998Z,98.78
2023-01-02T19:00:29.693Z,95.07
2023-01-02T19:03:01.535Z,97.57
2023-01-02T19:05:30.148Z,100.00
2023-01-02T19:08:22.801Z,98.90
2023-01-02T19:10:55.406Z,98.40
2023-01-02T19:13:27.761Z,97.68
2023-01-02T19:16:00.869Z,96.75
2023-01-02T19:18:37.061Z,99.43
2023-01-02T19:21:13.469Z,101.82
2023-01-02T19:23:48.510Z,101.88
2023-01-02T19:26:38.352Z,120.75
2023-01-02T19:29:11.390Z,112.82
2023-01-02T19:32:14.413Z,108.90
2023-01-02T19:34:47.303Z,99.57
2023-01-02T19:37:14.808Z,99.55
2023-01-02T19:39:52.045Z,92.63
2023-01-02T19:42:19.487Z,99.13
2023-01-02T19:45:09.577Z,102.78
2023-01-02T19:47:38.329Z,102.18
2023-01-02T19:50:08.201Z,95.80
2023-01-02T19:52:35.908Z,98.70
2023-01-02T19:55:04.142Z,92.03
2023-01-02T19:57:31.047Z,86.00
2023-01-02T20:00:01.428Z,90.78
2023-01-02T20:02:28.830Z,81.93
2023-01-02T20:04:55.960Z,86.20
2023-01-02T20:07:24.737Z,83.05
2023-01-02T20:09:52.903Z,89.32
2023-01-02T20:12:40.829Z,84.95
2023-01-02T20:15:20.964Z,87.05
2023-01-02T20:17:48.324Z,85.13
2023-01-02T20:20:18.166Z,85.53
2023-01-02T20:22:45.917Z,88.55
2023-01-02T20:25:14.691Z,91.63
2023-01-02T20:27:41.873Z,81.80
2023-01-02T20:30:10.017Z,80.20
2023-01-02T20:32:37.144Z,84.75
2023-01-02T20:35:05.192Z,76.68
2023-01-02T20:37:32.132Z,71.32
2023-01-02T20:39:59.110Z,72.70
2023-01-02T20:42:26.129Z,88.40
2023-01-02T20:44:53.000Z,89.63
2023-01-02T20:47:20.435Z,93.65
2023-01-02T20:49:47.392Z,90.43
2023-01-02T20:52:14.251Z,92.00
2023-01-02T20:54:41.257Z,94.35
2023-01-02T20:57:08.058Z,96.55
2023-01-02T20:59:34.956Z,94.82
2023-01-02T21:02:01.868Z,98.75
2023-01-02T21:04:36.132Z,91.38
2023-01-02T21:07:04.326Z,90.35
2023-01-02T21:09:31.343Z,85.53
2023-01-02T21:11:58.229Z,79.88
2023-01-02T21:14:25.078Z,70.53
2023-01-02T21:16:51.956Z,80.20
2023-01-02T21:19:18.868Z,79.07
2023-01-02T21:21:45.836Z,77.20
2023-01-02T21:24:12.695Z,68.70
2023-01-02T21:26:39.475Z,73.57
2023-01-02T21:29:06.324Z,64.78
2023-01-02T21:31:33.229Z,65.65
2023-01-02T21:34:00.110Z,66.10
2023-01-02T21:36:27.208Z,71.85
2023-01-02T21:38:54.208Z,74.10
2023-01-02T21:41:39.399Z,69.57
2023-01-02T21:44:06.205Z,54.92
2023-01-02T21:46:33.058Z,49.85
2023-01-02T21:49:00.123Z,47.22
2023-01-02T21:51:32.478Z,45.90
2023-01-02T21:54:00.047Z,48.10
2023-01-02T21:56:27.303Z,47.88
2023-01-02T21:58:55.169Z,47.70
2023-01-02T22:01:22.330Z,49.50
2023-01-02T22:03:49.463Z,49.22
2023-01-02T22:06:18.411Z,55.03
2023-01-02T22:08:45.357Z,61.95
2023-01-02T22:11:36.338Z,50.80
2023-01-02T22:14:03.150Z,48.83
2023-01-02T22:16:30.089Z,47.13
2023-01-02T22:18:56.937Z,45.00
2023-01-02T22:21:23.727Z,43.33
2023-01-02T22:23:50.625Z,42.20
2023-01-02T22:26:18.729Z,40.03
2023-01-02T22:28:45.700Z,39.17
2023-01-02T22:31:15.858Z,37.25
2023-01-02T22:33:43.108Z,37.28
2023-01-02T22:36:10.149Z,37.50
2023-01-02T22:38:43.948Z,37.75
2023-01-02T22:41:22.561Z,36.33
2023-01-02T22:43:49.616Z,35.97
2023-01-02T22:46:24.202Z,38.05
2023-01-02T22:48:51.828Z,40.03
2023-01-02T22:51:25.958Z,38.70
2023-01-02T22:54:03.664Z,41.45
2023-01-02T22:56:31.516Z,42.03
2023-01-02T22:58:58.384Z,44.15
2023-01-02T23:01:30.203Z,43.33
2023-01-02T23:03:58.451Z,45.10
2023-01-02T23:06:25.637Z,41.28
2023-01-02T23:08:53.189Z,42.65
2023-01-02T23:11:21.925Z,42.13
2023-01-02T23:13:56.101Z,57.78
2023-01-02T23:16:42.182Z,59.35
2023-01-02T23:19:14.959Z,59.67
2023-01-02T23:21:44.573Z,56.92
2023-01-02T23:24:13.730Z,54.30
2023-01-02T23:26:44.303Z,51.97
2023-01-02T23:29:12.674Z,57.63
2023-01-02T23:31:45.446Z,64.25
2023-01-02T23:34:14.550Z,62.38
2023-01-02T23:36:42.351Z,63.70
2023-01-02T23:39:14.579Z,63.83
2023-01-02T23:41:43.114Z,64.45
2023-01-02T23:44:11.304Z,66.28
2023-01-02T23:46:38.590Z,67.75
2023-01-02T23:49:07.311Z,64.07
2023-01-02T23:51:34.549Z,62.53
2023-01-02T23:54:01.585Z,64.95
2023-01-02T23:56:34.804Z,60.50
2023-01-02T23:59:04.643Z,63.05
